sensor_id;sensor_type;location;lat;lon;timestamp;P1;durP1;ratioP1;P2;durP2;ratioP2
77415;SDS011;66489;49.230;8.520;2023-02-01T05:00:49;7.68;;;3.22;;
77415;SDS011;66489;49.230;8.520;2023-02-01T05:03:16;5.85;;;3.20;;
77415;SDS011;66489;49.230;8.520;2023-02-01T05:05:46;8.30;;;3.50;;
77415;SDS011;66489;49.230;8.520;2023-02-01T05:08:14;8.65;;;3.65;;
77415;SDS011;66489;49.230;8.520;2023-02-01T05:10:41;7.18;;;3.70;;
77415;SDS011;66489;49.230;8.520;2023-02-01T05:13:08;7.18;;;3.47;;
77415;SDS011;66489;49.230;8.520;2023-02-01T05:15:56;7.32;;;3.67;;
77415;SDS011;66489;49.230;8.520;2023-02-01T05:18:23;10.00;;;5.18;;
77415;SDS011;66489;49.230;8.520;2023-02-01T05:20:49;12.05;;;5.82;;
77415;SDS011;66489;49.230;8.520;2023-02-01T05:23:16;12.60;;;6.05;;
77415;SDS011;66489;49.230;8.520;2023-02-01T05:25:42;7.18;;;4.03;;
77415;SDS011;66489;49.230;8.520;2023-02-01T05:28:12;7.40;;;3.70;;
77415;SDS011;66489;49.230;8.520;2023-02-01T05:30:41;8.63;;;3.40;;
77415;SDS011;66489;49.230;8.520;2023-02-01T05:33:08;7.90;;;3.35;;
77415;SDS011;66489;49.230;8.520;2023-02-01T05:35:35;6.43;;;3.40;;
77415;SDS011;66489;49.230;8.520;2023-02-01T05:38:01;6.95;;;3.35;;
77415;SDS011;66489;49.230;8.520;2023-02-01T05:40:28;6.20;;;3.88;;
77415;SDS011;66489;49.230;8.520;2023-02-01T05:42:54;6.07;;;3.50;;
77415;SDS011;66489;49.230;8.520;2023-02-01T05:45:24;7.85;;;3.60;;
77415;SDS011;66489;49.230;8.520;2023-02-01T05:47:50;7.47;;;3.70;;
77415;SDS011;66489;49.230;8.520;2023-02-01T05:50:17;9.38;;;4.10;;
77415;SDS011;66489;49.230;8.520;2023-02-01T05:52:44;6.72;;;3.70;;
77415;SDS011;66489;49.230;8.520;2023-02-01T05:55:10;8.20;;;4.22;;
77415;SDS011;66489;49.230;8.520;2023-02-01T05:57:40;7.07;;;3.85;;
77415;SDS011;66489;49.230;8.520;2023-02-01T06:00:06;8.50;;;4.50;;
77415;SDS011;66489;49.230;8.520;2023-02-01T06:02:37;9.15;;;4.47;;
77415;SDS011;66489;49.230;8.520;2023-02-01T06:05:04;8.20;;;4.55;;
77415;SDS011;66489;49.230;8.520;2023-02-01T06:07:31;12.27;;;4.95;;
77415;SDS011;66489;49.230;8.520;2023-02-01T06:09:58;9.50;;;5.18;;
77415;SDS011;66489;49.230;8.520;2023-02-01T06:12:25;9.23;;;4.47;;
77415;SDS011;66489;49.230;8.520;2023-02-01T06:14:54;11.20;;;5.47;;
77415;SDS011;66489;49.230;8.520;2023-02-01T06:17:20;9.75;;;5.03;;
77415;SDS011;66489;49.230;8.520;2023-02-01T06:19:47;10.82;;;5.10;;
77415;SDS011;66489;49.230;8.520;2023-02-01T06:22:14;9.27;;;4.75;;
77415;SDS011;66489;49.230;8.520;2023-02-01T06:24:41;10.43;;;5.20;;
77415;SDS011;66489;49.230;8.520;2023-02-01T06:27:07;9.15;;;5.05;;
77415;SDS011;66489;49.230;8.520;2023-02-01T06:29:35;11.13;;;5.40;;
77415;SDS011;66489;49.230;8.520;2023-02-01T06:32:02;10.65;;;5.78;;
77415;SDS011;66489;49.230;8.520;2023-02-01T06:34:29;10.93;;;5.50;;
77415;SDS011;66489;49.230;8.520;2023-02-01T06:36:55;13.43;;;5.82;;
77415;SDS011;66489;49.230;8.520;2023-02-01T06:39:22;11.55;;;6.35;;
77415;SDS011;66489;49.230;8.520;2023-02-01T06:41:48;12.27;;;6.15;;
77415;SDS011;66489;49.230;8.520;2023-02-01T06:44:15;11.60;;;5.60;;
77415;SDS011;66489;49.230;8.520;2023-02-01T06:46:45;12.43;;;6.00;;
77415;SDS011;66489;49.230;8.520;2023-02-01T06:49:15;11.45;;;6.53;;
77415;SDS011;66489;49.230;8.520;2023-02-01T06:51:41;14.07;;;6.20;;
77415;SDS011;66489;49.230;8.520;2023-02-01T06:54:08;15.13;;;6.80;;
77415;SDS011;66489;49.230;8.520;2023-02-01T06:56:37;12.85;;;6.70;;
77415;SDS011;66489;49.230;8.520;2023-02-01T06:59:05;18.17;;;6.55;;
77415;SDS011;66489;49.230;8.520;2023-02-01T07:01:32;10.77;;;5.78;;
77415;SDS011;66489;49.230;8.520;2023-02-01T07:03:59;12.82;;;5.70;;
77415;SDS011;66489;49.230;8.520;2023-02-01T07:06:25;13.07;;;5.70;;
77415;SDS011;66489;49.230;8.520;2023-02-01T07:08:52;10.77;;;4.75;;
77415;SDS011;66489;49.230;8.520;2023-02-01T07:11:24;12.93;;;5.38;;
77415;SDS011;66489;49.230;8.520;2023-02-01T07:13:53;9.63;;;5.10;;
77415;SDS011;66489;49.230;8.520;2023-02-01T07:16:20;12.02;;;5.88;;
77415;SDS011;66489;49.230;8.520;2023-02-01T07:18:47;13.15;;;6.22;;
77415;SDS011;66489;49.230;8.520;2023-02-01T07:21:16;15.68;;;6.75;;
77415;SDS011;66489;49.230;8.520;2023-02-01T07:23:42;16.20;;;8.35;;
77415;SDS011;66489;49.230;8.520;2023-02-01T07:26:10;14.38;;;8.48;;
77415;SDS011;66489;49.230;8.520;2023-02-01T07:28:39;18.80;;;7.03;;
77415;SDS011;66489;49.230;8.520;2023-02-01T07:31:10;14.20;;;6.63;;
77415;SDS011;66489;49.230;8.520;2023-02-01T07:33:41;14.00;;;6.70;;
77415;SDS011;66489;49.230;8.520;2023-02-01T07:36:10;17.13;;;7.30;;
77415;SDS011;66489;49.230;8.520;2023-02-01T07:38:38;15.43;;;7.03;;
77415;SDS011;66489;49.230;8.520;2023-02-01T07:41:05;12.93;;;6.47;;
77415;SDS011;66489;49.230;8.520;2023-02-01T07:43:32;13.70;;;6.78;;
77415;SDS011;66489;49.230;8.520;2023-02-01T07:46:02;18.00;;;6.93;;
77415;SDS011;66489;49.230;8.520;2023-02-01T07:48:29;16.55;;;7.15;;
77415;SDS011;66489;49.230;8.520;2023-02-01T07:53:34;13.48;;;6.05;;
77415;SDS011;66489;49.230;8.520;2023-02-01T07:56:01;12.05;;;6.53;;
77415;SDS011;66489;49.230;8.520;2023-02-01T07:58:28;14.95;;;6.80;;
77415;SDS011;66489;49.230;8.520;2023-02-01T08:00:54;15.88;;;6.68;;
77415;SDS011;66489;49.230;8.520;2023-02-01T08:03:48;15.57;;;6.75;;
77415;SDS011;66489;49.230;8.520;2023-02-01T08:06:16;15.32;;;8.00;;
77415;SDS011;66489;49.230;8.520;2023-02-01T08:08:43;12.38;;;6.70;;
77415;SDS011;66489;49.230;8.520;2023-02-01T08:11:11;19.88;;;7.00;;
77415;SDS011;66489;49.230;8.520;2023-02-01T08:13:37;15.80;;;7.63;;
77415;SDS011;66489;49.230;8.520;2023-02-01T08:16:05;17.55;;;7.45;;
77415;SDS011;66489;49.230;8.520;2023-02-01T08:18:33;15.20;;;7.40;;
77415;SDS011;66489;49.230;8.520;2023-02-01T08:21:06;17.15;;;7.50;;
77415;SDS011;66489;49.230;8.520;2023-02-01T08:23:35;17.10;;;7.55;;
77415;SDS011;66489;49.230;8.520;2023-02-01T08:28:32;17.75;;;7.40;;
77415;SDS011;66489;49.230;8.520;2023-02-01T08:31:04;15.50;;;6.43;;
77415;SDS011;66489;49.230;8.520;2023-02-01T08:33:32;16.60;;;6.55;;
77415;SDS011;66489;49.230;8.520;2023-02-01T08:36:00;15.00;;;5.90;;
77415;SDS011;66489;49.230;8.520;2023-02-01T08:38:28;17.42;;;8.10;;
77415;SDS011;66489;49.230;8.520;2023-02-01T08:40:54;13.00;;;6.72;;
77415;SDS011;66489;49.230;8.520;2023-02-01T08:43:21;17.67;;;6.10;;
77415;SDS011;66489;49.230;8.520;2023-02-01T08:45:48;16.63;;;7.50;;
77415;SDS011;66489;49.230;8.520;2023-02-01T08:48:14;17.38;;;6.97;;
77415;SDS011;66489;49.230;8.520;2023-02-01T08:50:41;14.02;;;5.80;;
77415;SDS011;66489;49.230;8.520;2023-02-01T08:53:07;14.80;;;6.38;;
77415;SDS011;66489;49.230;8.520;2023-02-01T08:55:34;18.42;;;6.07;;
77415;SDS011;66489;49.230;8.520;2023-02-01T08:58:00;14.07;;;5.05;;
77415;SDS011;66489;49.230;8.520;2023-02-01T09:00:27;13.48;;;4.28;;
77415;SDS011;66489;49.230;8.520;2023-02-01T09:02:54;14.32;;;4.88;;
77415;SDS011;66489;49.230;8.520;2023-02-01T09:05:21;13.50;;;5.15;;
77415;SDS011;66489;49.230;8.520;2023-02-01T09:07:49;14.07;;;5.00;;
77415;SDS011;66489;49.230;8.520;2023-02-01T09:10:15;12.10;;;4.75;;
77415;SDS011;66489;49.230;8.520;2023-02-01T09:12:55;9.77;;;4.50;;
77415;SDS011;66489;49.230;8.520;2023-02-01T09:15:21;11.68;;;5.32;;
77415;SDS011;66489;49.230;8.520;2023-02-01T09:17:48;14.27;;;5.25;;
77415;SDS011;66489;49.230;8.520;2023-02-01T09:20:15;11.35;;;5.38;;
77415;SDS011;66489;49.230;8.520;2023-02-01T09:22:42;13.23;;;5.25;;
77415;SDS011;66489;49.230;8.520;2023-02-01T09:25:08;13.80;;;5.47;;
77415;SDS011;66489;49.230;8.520;2023-02-01T09:27:35;12.25;;;4.78;;
77415;SDS011;66489;49.230;8.520;2023-02-01T09:30:02;12.00;;;4.75;;
77415;SDS011;66489;49.230;8.520;2023-02-01T09:32:30;13.10;;;4.50;;
77415;SDS011;66489;49.230;8.520;2023-02-01T09:34:57;19.85;;;5.25;;
77415;SDS011;66489;49.230;8.520;2023-02-01T09:37:23;17.23;;;5.35;;
77415;SDS011;66489;49.230;8.520;2023-02-01T09:39:50;16.65;;;4.53;;
77415;SDS011;66489;49.230;8.520;2023-02-01T09:47:18;12.13;;;4.10;;
77415;SDS011;66489;49.230;8.520;2023-02-01T09:49:55;13.43;;;4.78;;
77415;SDS011;66489;49.230;8.520;2023-02-01T09:52:27;16.42;;;5.10;;
77415;SDS011;66489;49.230;8.520;2023-02-01T09:54:58;12.80;;;3.90;;
77415;SDS011;66489;49.230;8.520;2023-02-01T09:57:40;12.63;;;3.90;;
77415;SDS011;66489;49.230;8.520;2023-02-01T10:00:15;14.52;;;4.93;;
77415;SDS011;66489;49.230;8.520;2023-02-01T10:02:44;14.65;;;4.63;;
77415;SDS011;66489;49.230;8.520;2023-02-01T10:05:15;15.32;;;4.35;;
77415;SDS011;66489;49.230;8.520;2023-02-01T10:13:33;13.73;;;4.05;;
77415;SDS011;66489;49.230;8.520;2023-02-01T10:16:11;15.30;;;3.97;;
77415;SDS011;66489;49.230;8.520;2023-02-01T10:21:22;13.43;;;3.17;;
77415;SDS011;66489;49.230;8.520;2023-02-01T10:23:56;11.80;;;3.00;;
77415;SDS011;66489;49.230;8.520;2023-02-01T10:26:38;10.60;;;3.50;;
77415;SDS011;66489;49.230;8.520;2023-02-01T10:29:15;9.90;;;3.25;;
77415;SDS011;66489;49.230;8.520;2023-02-01T10:31:43;15.23;;;4.03;;
77415;SDS011;66489;49.230;8.520;2023-02-01T10:36:52;12.57;;;3.67;;
77415;SDS011;66489;49.230;8.520;2023-02-01T10:39:20;15.07;;;3.17;;
77415;SDS011;66489;49.230;8.520;2023-02-01T10:41:47;13.38;;;3.35;;
77415;SDS011;66489;49.230;8.520;2023-02-01T10:44:25;11.10;;;3.80;;
77415;SDS011;66489;49.230;8.520;2023-02-01T10:46:53;15.35;;;3.97;;
77415;SDS011;66489;49.230;8.520;2023-02-01T10:49:31;11.80;;;3.45;;
77415;SDS011;66489;49.230;8.520;2023-02-01T10:54:39;14.60;;;4.45;;
77415;SDS011;66489;49.230;8.520;2023-02-01T10:57:09;20.17;;;5.72;;
77415;SDS011;66489;49.230;8.520;2023-02-01T10:59:47;12.98;;;4.15;;
77415;SDS011;66489;49.230;8.520;2023-02-01T11:02:33;14.98;;;4.40;;
77415;SDS011;66489;49.230;8.520;2023-02-01T11:05:05;13.57;;;5.55;;
77415;SDS011;66489;49.230;8.520;2023-02-01T11:07:38;16.00;;;4.88;;
77415;SDS011;66489;49.230;8.520;2023-02-01T11:10:06;11.50;;;3.80;;
77415;SDS011;66489;49.230;8.520;2023-02-01T11:12:36;16.92;;;4.03;;
77415;SDS011;66489;49.230;8.520;2023-02-01T11:15:20;10.55;;;3.97;;
77415;SDS011;66489;49.230;8.520;2023-02-01T11:17:49;12.50;;;3.72;;
77415;SDS011;66489;49.230;8.520;2023-02-01T11:20:18;14.75;;;5.38;;
77415;SDS011;66489;49.230;8.520;2023-02-01T11:23:00;19.33;;;4.30;;
77415;SDS011;66489;49.230;8.520;2023-02-01T11:25:27;14.25;;;4.00;;
77415;SDS011;66489;49.230;8.520;2023-02-01T11:27:54;15.25;;;4.03;;
77415;SDS011;66489;49.230;8.520;2023-02-01T11:30:43;14.48;;;3.97;;
77415;SDS011;66489;49.230;8.520;2023-02-01T11:33:12;15.38;;;3.72;;
77415;SDS011;66489;49.230;8.520;2023-02-01T11:35:42;13.60;;;3.80;;
77415;SDS011;66489;49.230;8.520;2023-02-01T11:38:23;11.57;;;2.92;;
77415;SDS011;66489;49.230;8.520;2023-02-01T11:40:51;14.57;;;3.92;;
77415;SDS011;66489;49.230;8.520;2023-02-01T11:43:24;14.05;;;3.75;;
77415;SDS011;66489;49.230;8.520;2023-02-01T11:48:27;17.10;;;4.60;;
77415;SDS011;66489;49.230;8.520;2023-02-01T12:04:41;20.17;;;5.78;;
77415;SDS011;66489;49.230;8.520;2023-02-01T12:07:23;20.00;;;7.00;;
77415;SDS011;66489;49.230;8.520;2023-02-01T12:10:03;13.43;;;3.42;;
77415;SDS011;66489;49.230;8.520;2023-02-01T12:15:19;18.17;;;7.97;;
77415;SDS011;66489;49.230;8.520;2023-02-01T12:20:52;17.50;;;4.75;;
77415;SDS011;66489;49.230;8.520;2023-02-01T12:26:44;14.73;;;3.63;;
77415;SDS011;66489;49.230;8.520;2023-02-01T12:45:49;11.05;;;2.83;;
77415;SDS011;66489;49.230;8.520;2023-02-01T12:48:28;15.57;;;3.78;;
77415;SDS011;66489;49.230;8.520;2023-02-01T12:51:20;11.60;;;3.60;;
77415;SDS011;66489;49.230;8.520;2023-02-01T12:56:51;12.60;;;3.00;;
77415;SDS011;66489;49.230;8.520;2023-02-01T13:02:13;14.73;;;3.20;;
77415;SDS011;66489;49.230;8.520;2023-02-01T13:07:45;10.90;;;2.65;;
77415;SDS011;66489;49.230;8.520;2023-02-01T13:10:24;13.98;;;3.30;;
77415;SDS011;66489;49.230;8.520;2023-02-01T13:12:56;11.23;;;3.03;;
77415;SDS011;66489;49.230;8.520;2023-02-01T13:15:40;12.85;;;3.10;;
77415;SDS011;66489;49.230;8.520;2023-02-01T13:18:13;13.82;;;2.95;;
77415;SDS011;66489;49.230;8.520;2023-02-01T13:21:25;14.30;;;3.22;;
77415;SDS011;66489;49.230;8.520;2023-02-01T13:23:37;9.25;;;2.83;;
77415;SDS011;66489;49.230;8.520;2023-02-01T13:26:05;12.70;;;3.08;;
77415;SDS011;66489;49.230;8.520;2023-02-01T13:28:35;14.57;;;3.47;;
77415;SDS011;66489;49.230;8.520;2023-02-01T13:36:41;11.38;;;3.30;;
77415;SDS011;66489;49.230;8.520;2023-02-01T13:39:27;13.27;;;2.80;;
77415;SDS011;66489;49.230;8.520;2023-02-01T13:45:04;11.30;;;2.67;;
77415;SDS011;66489;49.230;8.520;2023-02-01T13:47:40;9.55;;;2.83;;
77415;SDS011;66489;49.230;8.520;2023-02-01T13:52:41;13.57;;;3.95;;
77415;SDS011;66489;49.230;8.520;2023-02-01T13:57:39;13.90;;;3.90;;
77415;SDS011;66489;49.230;8.520;2023-02-01T14:16:10;11.70;;;3.13;;
77415;SDS011;66489;49.230;8.520;2023-02-01T14:23:55;13.05;;;3.30;;
77415;SDS011;66489;49.230;8.520;2023-02-01T14:34:15;11.30;;;3.53;;
77415;SDS011;66489;49.230;8.520;2023-02-01T14:36:53;11.15;;;3.22;;
77415;SDS011;66489;49.230;8.520;2023-02-01T14:39:24;12.02;;;3.25;;
77415;SDS011;66489;49.230;8.520;2023-02-01T14:41:54;11.77;;;2.38;;
77415;SDS011;66489;49.230;8.520;2023-02-01T14:44:28;10.27;;;2.55;;
77415;SDS011;66489;49.230;8.520;2023-02-01T14:52:34;13.80;;;3.15;;
77415;SDS011;66489;49.230;8.520;2023-02-01T14:55:05;16.30;;;4.88;;
77415;SDS011;66489;49.230;8.520;2023-02-01T14:57:37;11.27;;;2.72;;
77415;SDS011;66489;49.230;8.520;2023-02-01T15:00:08;11.05;;;3.15;;
77415;SDS011;66489;49.230;8.520;2023-02-01T15:02:43;12.65;;;2.60;;
77415;SDS011;66489;49.230;8.520;2023-02-01T15:05:22;12.45;;;2.50;;
77415;SDS011;66489;49.230;8.520;2023-02-01T15:07:51;11.90;;;3.00;;
77415;SDS011;66489;49.230;8.520;2023-02-01T15:10:19;8.85;;;2.60;;
77415;SDS011;66489;49.230;8.520;2023-02-01T15:12:47;10.75;;;2.70;;
77415;SDS011;66489;49.230;8.520;2023-02-01T15:15:19;11.25;;;2.80;;
77415;SDS011;66489;49.230;8.520;2023-02-01T15:17:50;11.68;;;3.00;;
77415;SDS011;66489;49.230;8.520;2023-02-01T15:22:56;10.10;;;2.65;;
77415;SDS011;66489;49.230;8.520;2023-02-01T15:25:31;10.93;;;2.95;;
77415;SDS011;66489;49.230;8.520;2023-02-01T15:28:01;12.48;;;2.88;;
77415;SDS011;66489;49.230;8.520;2023-02-01T15:30:29;13.93;;;3.30;;
77415;SDS011;66489;49.230;8.520;2023-02-01T15:43:36;11.35;;;3.70;;
77415;SDS011;66489;49.230;8.520;2023-02-01T15:46:09;13.10;;;3.80;;
77415;SDS011;66489;49.230;8.520;2023-02-01T15:48:45;14.77;;;3.85;;
77415;SDS011;66489;49.230;8.520;2023-02-01T15:51:14;19.90;;;4.68;;
77415;SDS011;66489;49.230;8.520;2023-02-01T15:53:44;14.55;;;4.45;;
77415;SDS011;66489;49.230;8.520;2023-02-01T15:56:13;12.45;;;3.17;;
77415;SDS011;66489;49.230;8.520;2023-02-01T15:58:41;13.50;;;3.40;;
77415;SDS011;66489;49.230;8.520;2023-02-01T16:01:16;12.13;;;3.50;;
77415;SDS011;66489;49.230;8.520;2023-02-01T16:03:44;10.73;;;3.20;;
77415;SDS011;66489;49.230;8.520;2023-02-01T16:08:48;12.55;;;3.53;;
77415;SDS011;66489;49.230;8.520;2023-02-01T16:11:24;11.95;;;3.10;;
77415;SDS011;66489;49.230;8.520;2023-02-01T16:14:00;11.80;;;3.47;;
77415;SDS011;66489;49.230;8.520;2023-02-01T16:16:28;13.57;;;3.75;;
77415;SDS011;66489;49.230;8.520;2023-02-01T16:18:55;20.00;;;5.35;;
77415;SDS011;66489;49.230;8.520;2023-02-01T16:21:22;14.63;;;4.40;;
77415;SDS011;66489;49.230;8.520;2023-02-01T16:23:50;26.52;;;13.80;;
77415;SDS011;66489;49.230;8.520;2023-02-01T16:26:17;15.10;;;4.18;;
77415;SDS011;66489;49.230;8.520;2023-02-01T16:28:44;12.07;;;3.65;;
77415;SDS011;66489;49.230;8.520;2023-02-01T16:31:12;14.30;;;3.58;;
77415;SDS011;66489;49.230;8.520;2023-02-01T16:33:46;10.73;;;3.53;;
77415;SDS011;66489;49.230;8.520;2023-02-01T16:36:13;15.20;;;4.30;;
77415;SDS011;66489;49.230;8.520;2023-02-01T16:38:40;16.38;;;4.80;;
77415;SDS011;66489;49.230;8.520;2023-02-01T16:41:10;17.27;;;4.45;;
77415;SDS011;66489;49.230;8.520;2023-02-01T16:43:39;14.48;;;4.18;;
77415;SDS011;66489;49.230;8.520;2023-02-01T16:46:05;13.95;;;3.80;;
77415;SDS011;66489;49.230;8.520;2023-02-01T16:48:39;17.52;;;4.20;;
77415;SDS011;66489;49.230;8.520;2023-02-01T16:51:08;11.40;;;3.63;;
77415;SDS011;66489;49.230;8.520;2023-02-01T16:53:36;13.68;;;4.07;;
77415;SDS011;66489;49.230;8.520;2023-02-01T16:58:47;18.02;;;5.28;;
77415;SDS011;66489;49.230;8.520;2023-02-01T17:01:15;12.70;;;3.35;;
77415;SDS011;66489;49.230;8.520;2023-02-01T17:03:43;13.15;;;3.85;;
77415;SDS011;66489;49.230;8.520;2023-02-01T17:06:13;12.75;;;3.40;;
77415;SDS011;66489;49.230;8.520;2023-02-01T17:08:43;12.60;;;3.38;;
77415;SDS011;66489;49.230;8.520;2023-02-01T17:11:12;14.30;;;4.38;;
77415;SDS011;66489;49.230;8.520;2023-02-01T17:13:39;13.43;;;3.40;;
77415;SDS011;66489;49.230;8.520;2023-02-01T17:18:44;12.50;;;3.97;;
77415;SDS011;66489;49.230;8.520;2023-02-01T17:21:14;11.57;;;3.50;;
77415;SDS011;66489;49.230;8.520;2023-02-01T17:23:40;17.30;;;3.95;;
77415;SDS011;66489;49.230;8.520;2023-02-01T17:26:08;12.23;;;4.13;;
77415;SDS011;66489;49.230;8.520;2023-02-01T17:28:35;13.45;;;4.10;;
77415;SDS011;66489;49.230;8.520;2023-02-01T17:31:02;15.27;;;3.40;;
77415;SDS011;66489;49.230;8.520;2023-02-01T17:33:30;13.45;;;3.75;;
77415;SDS011;66489;49.230;8.520;2023-02-01T17:36:02;14.10;;;3.67;;
77415;SDS011;66489;49.230;8.520;2023-02-01T17:38:31;22.83;;;4.13;;
77415;SDS011;66489;49.230;8.520;2023-02-01T17:40:58;11.25;;;3.30;;
77415;SDS011;66489;49.230;8.520;2023-02-01T17:43:25;19.25;;;6.07;;
77415;SDS011;66489;49.230;8.520;2023-02-01T17:45:53;17.20;;;4.45;;
77415;SDS011;66489;49.230;8.520;2023-02-01T17:48:21;22.20;;;5.65;;
77415;SDS011;66489;49.230;8.520;2023-02-01T17:50:48;11.57;;;4.30;;
77415;SDS011;66489;49.230;8.520;2023-02-01T17:53:20;14.35;;;3.80;;
77415;SDS011;66489;49.230;8.520;2023-02-01T17:55:50;15.18;;;4.28;;
77415;SDS011;66489;49.230;8.520;2023-02-01T17:58:17;12.45;;;3.22;;
77415;SDS011;66489;49.230;8.520;2023-02-01T18:00:44;9.90;;;3.38;;
77415;SDS011;66489;49.230;8.520;2023-02-01T18:03:17;14.07;;;3.67;;
77415;SDS011;66489;49.230;8.520;2023-02-01T18:05:48;8.93;;;2.85;;
77415;SDS011;66489;49.230;8.520;2023-02-01T18:08:19;13.60;;;3.35;;
77415;SDS011;66489;49.230;8.520;2023-02-01T18:10:51;12.90;;;3.37;;
77415;SDS011;66489;49.230;8.520;2023-02-01T18:13:20;13.98;;;3.38;;
77415;SDS011;66489;49.230;8.520;2023-02-01T18:15:47;15.23;;;4.07;;
77415;SDS011;66489;49.230;8.520;2023-02-01T18:18:14;12.65;;;3.50;;
77415;SDS011;66489;49.230;8.520;2023-02-01T18:20:41;13.60;;;2.80;;
77415;SDS011;66489;49.230;8.520;2023-02-01T18:23:21;13.10;;;3.05;;
77415;SDS011;66489;49.230;8.520;2023-02-01T18:25:49;12.27;;;3.33;;
77415;SDS011;66489;49.230;8.520;2023-02-01T18:28:18;11.23;;;3.00;;
77415;SDS011;66489;49.230;8.520;2023-02-01T18:30:47;10.75;;;2.63;;
77415;SDS011;66489;49.230;8.520;2023-02-01T18:33:17;14.90;;;3.67;;
77415;SDS011;66489;49.230;8.520;2023-02-01T18:35:46;11.50;;;3.03;;
77415;SDS011;66489;49.230;8.520;2023-02-01T18:38:13;12.68;;;3.40;;
77415;SDS011;66489;49.230;8.520;2023-02-01T18:40:53;16.08;;;3.47;;
77415;SDS011;66489;49.230;8.520;2023-02-01T18:43:26;13.32;;;3.63;;
77415;SDS011;66489;49.230;8.520;2023-02-01T18:45:53;11.60;;;3.40;;
77415;SDS011;66489;49.230;8.520;2023-02-01T18:48:21;11.05;;;3.10;;
77415;SDS011;66489;49.230;8.520;2023-02-01T18:50:48;14.25;;;3.78;;
77415;SDS011;66489;49.230;8.520;2023-02-01T18:53:18;16.88;;;4.97;;
77415;SDS011;66489;49.230;8.520;2023-02-01T18:55:48;14.75;;;3.80;;
77415;SDS011;66489;49.230;8.520;2023-02-01T18:58:15;14.10;;;3.53;;
77415;SDS011;66489;49.230;8.520;2023-02-01T19:00:43;11.68;;;3.38;;
77415;SDS011;66489;49.230;8.520;2023-02-01T19:03:11;11.90;;;3.35;;
77415;SDS011;66489;49.230;8.520;2023-02-01T19:05:38;14.05;;;3.85;;
77415;SDS011;66489;49.230;8.520;2023-02-01T19:08:06;14.30;;;4.20;;
77415;SDS011;66489;49.230;8.520;2023-02-01T19:10:33;12.13;;;3.45;;
77415;SDS011;66489;49.230;8.520;2023-02-01T19:13:01;14.27;;;3.92;;
77415;SDS011;66489;49.230;8.520;2023-02-01T19:15:28;16.05;;;3.80;;
77415;SDS011;66489;49.230;8.520;2023-02-01T19:17:54;13.25;;;3.80;;
77415;SDS011;66489;49.230;8.520;2023-02-01T19:20:22;14.63;;;3.15;;
77415;SDS011;66489;49.230;8.520;2023-02-01T19:22:51;12.45;;;3.25;;
77415;SDS011;66489;49.230;8.520;2023-02-01T19:25:22;12.70;;;3.50;;
77415;SDS011;66489;49.230;8.520;2023-02-01T19:27:51;14.05;;;3.38;;
77415;SDS011;66489;49.230;8.520;2023-02-01T19:30:19;12.98;;;3.42;;
77415;SDS011;66489;49.230;8.520;2023-02-01T19:32:47;11.05;;;2.78;;
77415;SDS011;66489;49.230;8.520;2023-02-01T19:35:16;16.35;;;3.55;;
77415;SDS011;66489;49.230;8.520;2023-02-01T19:37:47;13.40;;;3.45;;
77415;SDS011;66489;49.230;8.520;2023-02-01T19:40:15;16.73;;;3.92;;
77415;SDS011;66489;49.230;8.520;2023-02-01T19:45:10;9.63;;;3.10;;
77415;SDS011;66489;49.230;8.520;2023-02-01T19:47:37;13.50;;;3.50;;
77415;SDS011;66489;49.230;8.520;2023-02-01T19:50:04;10.82;;;3.17;;
77415;SDS011;66489;49.230;8.520;2023-02-01T19:52:35;13.40;;;2.90;;
77415;SDS011;66489;49.230;8.520;2023-02-01T19:55:02;12.02;;;2.90;;
77415;SDS011;66489;49.230;8.520;2023-02-01T19:57:30;16.75;;;3.70;;
77415;SDS011;66489;49.230;8.520;2023-02-01T19:59:56;13.38;;;3.15;;
77415;SDS011;66489;49.230;8.520;2023-02-01T20:02:46;14.48;;;3.42;;
77415;SDS011;66489;49.230;8.520;2023-02-01T20:05:13;15.00;;;4.03;;
77415;SDS011;66489;49.230;8.520;2023-02-01T20:07:41;17.13;;;3.50;;
77415;SDS011;66489;49.230;8.520;2023-02-01T20:10:08;15.18;;;3.55;;
77415;SDS011;66489;49.230;8.520;2023-02-01T20:12:35;14.93;;;3.28;;
77415;SDS011;66489;49.230;8.520;2023-02-01T20:15:02;14.52;;;3.13;;
77415;SDS011;66489;49.230;8.520;2023-02-01T20:17:29;15.25;;;3.13;;
77415;SDS011;66489;49.230;8.520;2023-02-01T20:19:58;14.45;;;3.25;;
77415;SDS011;66489;49.230;8.520;2023-02-01T20:22:25;13.30;;;4.03;;
77415;SDS011;66489;49.230;8.520;2023-02-01T20:24:52;12.65;;;3.90;;
77415;SDS011;66489;49.230;8.520;2023-02-01T20:27:18;17.85;;;4.10;;
77415;SDS011;66489;49.230;8.520;2023-02-01T20:29:45;12.45;;;3.45;;
77415;SDS011;66489;49.230;8.520;2023-02-01T20:32:12;17.42;;;3.65;;
77415;SDS011;66489;49.230;8.520;2023-02-01T20:34:38;15.52;;;3.17;;
77415;SDS011;66489;49.230;8.520;2023-02-01T20:37:07;16.38;;;3.55;;
77415;SDS011;66489;49.230;8.520;2023-02-01T20:39:33;13.30;;;3.67;;
77415;SDS011;66489;49.230;8.520;2023-02-01T20:42:21;14.20;;;3.75;;
77415;SDS011;66489;49.230;8.520;2023-02-01T20:44:52;13.18;;;3.22;;
77415;SDS011;66489;49.230;8.520;2023-02-01T20:47:24;16.60;;;3.30;;
77415;SDS011;66489;49.230;8.520;2023-02-01T20:49:51;12.40;;;3.25;;
77415;SDS011;66489;49.230;8.520;2023-02-01T20:52:38;19.65;;;3.60;;
77415;SDS011;66489;49.230;8.520;2023-02-01T20:55:05;14.77;;;3.28;;
77415;SDS011;66489;49.230;8.520;2023-02-01T20:57:32;15.70;;;3.40;;
77415;SDS011;66489;49.230;8.520;2023-02-01T21:00:02;15.13;;;3.00;;
77415;SDS011;66489;49.230;8.520;2023-02-01T21:02:33;13.45;;;3.22;;
77415;SDS011;66489;49.230;8.520;2023-02-01T21:04:59;11.55;;;3.55;;
77415;SDS011;66489;49.230;8.520;2023-02-01T21:07:26;14.93;;;3.70;;
77415;SDS011;66489;49.230;8.520;2023-02-01T21:09:53;13.80;;;3.03;;
77415;SDS011;66489;49.230;8.520;2023-02-01T21:12:19;14.55;;;3.40;;
77415;SDS011;66489;49.230;8.520;2023-02-01T21:14:46;12.43;;;3.25;;
77415;SDS011;66489;49.230;8.520;2023-02-01T21:17:12;12.90;;;3.10;;
77415;SDS011;66489;49.230;8.520;2023-02-01T21:19:39;14.77;;;3.20;;
77415;SDS011;66489;49.230;8.520;2023-02-01T21:22:09;12.93;;;3.53;;
77415;SDS011;66489;49.230;8.520;2023-02-01T21:24:37;14.75;;;2.88;;
77415;SDS011;66489;49.230;8.520;2023-02-01T21:27:06;17.63;;;3.97;;
77415;SDS011;66489;49.230;8.520;2023-02-01T21:29:33;17.20;;;3.40;;
77415;SDS011;66489;49.230;8.520;2023-02-01T21:32:00;9.75;;;3.13;;
77415;SDS011;66489;49.230;8.520;2023-02-01T21:34:27;13.50;;;3.40;;
77415;SDS011;66489;49.230;8.520;2023-02-01T21:36:53;16.23;;;3.05;;
77415;SDS011;66489;49.230;8.520;2023-02-01T21:39:20;11.25;;;2.58;;
77415;SDS011;66489;49.230;8.520;2023-02-01T21:41:47;12.45;;;3.30;;
77415;SDS011;66489;49.230;8.520;2023-02-01T21:44:32;15.13;;;3.40;;
77415;SDS011;66489;49.230;8.520;2023-02-01T21:46:58;13.30;;;3.25;;
77415;SDS011;66489;49.230;8.520;2023-02-01T21:49:25;15.32;;;3.83;;
77415;SDS011;66489;49.230;8.520;2023-02-01T21:51:54;15.93;;;3.45;;
77415;SDS011;66489;49.230;8.520;2023-02-01T21:54:21;16.77;;;3.70;;
77415;SDS011;66489;49.230;8.520;2023-02-01T21:56:47;12.15;;;3.15;;
77415;SDS011;66489;49.230;8.520;2023-02-01T21:59:14;13.90;;;2.88;;
